createdAt,value
2019-05-28T00:01:06.603Z,78.32
2019-05-28T00:03:37.935Z,78.10
2019-05-28T00:06:09.215Z,77.66
2019-05-28T00:08:40.476Z,77.32
2019-05-28T00:11:11.780Z,77.03
2019-05-28T00:13:43.009Z,77.01
2019-05-28T00:16:14.177Z,77.17
2019-05-28T00:18:45.387Z,77.37
2019-05-28T00:21:16.688Z,77.87
2019-05-28T00:23:47.873Z,77.63
2019-05-28T00:26:19.093Z,77.12
2019-05-28T00:28:50.382Z,76.81
2019-05-28T00:31:21.622Z,76.75
2019-05-28T00:33:52.880Z,76.55
2019-05-28T00:36:24.137Z,76.19
2019-05-28T00:38:55.443Z,75.94
2019-05-28T00:41:26.781Z,75.49
2019-05-28T00:43:58.034Z,75.31
2019-05-28T00:46:29.270Z,75.48
2019-05-28T00:49:00.486Z,75.32
2019-05-28T00:51:32.787Z,75.42
2019-05-28T00:54:03.989Z,75.61
2019-05-28T00:56:35.794Z,75.74
2019-05-28T00:59:07.295Z,75.79
2019-05-28T01:01:38.538Z,76.33
2019-05-28T01:04:09.729Z,76.70
2019-05-28T01:06:40.951Z,76.27
2019-05-28T01:09:12.183Z,75.92
2019-05-28T01:11:43.341Z,75.87
2019-05-28T01:14:14.560Z,75.76
2019-05-28T01:16:45.869Z,75.70
2019-05-28T01:19:17.118Z,75.13
2019-05-28T01:21:48.314Z,75.14
2019-05-28T01:24:19.574Z,74.99
2019-05-28T01:26:50.835Z,74.72
2019-05-28T01:29:22.054Z,75.24
2019-05-28T01:31:53.269Z,75.64
2019-05-28T01:34:24.453Z,75.72
2019-05-28T01:36:55.697Z,75.74
2019-05-28T01:39:26.964Z,76.04
2019-05-28T01:41:58.207Z,76.06
2019-05-28T01:44:29.455Z,76.16
2019-05-28T01:47:00.699Z,76.74
2019-05-28T01:49:31.941Z,76.90
2019-05-28T01:52:03.151Z,76.93
2019-05-28T01:54:34.409Z,76.36
2019-05-28T01:57:05.663Z,76.50
2019-05-28T01:59:36.947Z,77.19
2019-05-28T02:02:08.302Z,77.80
2019-05-28T02:04:39.541Z,78.21
2019-05-28T02:07:10.800Z,78.64
2019-05-28T02:09:42.129Z,79.11
2019-05-28T02:12:13.373Z,79.33
2019-05-28T02:14:44.589Z,79.23
2019-05-28T02:17:15.892Z,79.08
2019-05-28T02:19:47.299Z,78.53
2019-05-28T02:22:18.532Z,77.66
2019-05-28T02:24:49.738Z,76.88
2019-05-28T02:27:20.969Z,77.08
2019-05-28T02:29:52.219Z,76.96
2019-05-28T02:32:23.420Z,76.64
2019-05-28T02:34:54.659Z,76.43
2019-05-28T02:37:25.805Z,76.12
2019-05-28T02:39:56.927Z,75.90
2019-05-28T02:42:28.239Z,75.78
2019-05-28T02:44:59.542Z,74.67
2019-05-28T02:47:30.830Z,73.92
2019-05-28T02:50:02.126Z,73.02
2019-05-28T02:52:33.633Z,72.38
2019-05-28T02:55:05.547Z,72.17
2019-05-28T02:57:40.469Z,72.41
2019-05-28T03:00:13.303Z,73.10
2019-05-28T03:02:48.444Z,73.31
2019-05-28T03:05:20.241Z,72.58
2019-05-28T03:07:55.745Z,73.33
2019-05-28T03:11:02.346Z,73.99
2019-05-28T03:13:10.325Z,74.74
2019-05-28T03:15:45.992Z,75.02
2019-05-28T03:18:21.335Z,75.45
2019-05-28T03:20:54.986Z,75.83
2019-05-28T03:23:30.645Z,76.74
2019-05-28T03:26:02.031Z,77.49
2019-05-28T03:28:33.532Z,77.57
2019-05-28T03:31:04.735Z,78.05
2019-05-28T03:33:36.072Z,77.98
2019-05-28T03:36:10.464Z,75.21
2019-05-28T03:38:42.378Z,76.02
2019-05-28T03:41:13.668Z,77.39
2019-05-28T03:43:45.105Z,79.87
2019-05-28T03:46:16.478Z,81.33
2019-05-28T03:48:47.799Z,81.93
2019-05-28T03:51:19.111Z,82.52
2019-05-28T03:53:50.386Z,83.64
2019-05-28T03:56:21.636Z,84.27
2019-05-28T03:58:52.865Z,85.21
2019-05-28T04:01:24.865Z,85.60
2019-05-28T04:03:56.167Z,86.03
2019-05-28T04:06:27.427Z,86.34
2019-05-28T04:08:58.671Z,86.43
2019-05-28T04:11:43.885Z,86.65
2019-05-28T04:14:02.872Z,86.89
2019-05-28T04:16:35.134Z,86.41
2019-05-28T04:19:07.264Z,85.97
2019-05-28T04:21:38.598Z,86.44
2019-05-28T04:24:09.824Z,86.25
2019-05-28T04:26:41.143Z,85.42
2019-05-28T04:29:12.393Z,85.93
2019-05-28T04:31:43.605Z,86.65
2019-05-28T04:34:14.883Z,87.22
2019-05-28T04:36:46.185Z,87.83
2019-05-28T04:39:17.735Z,88.10
2019-05-28T04:41:48.991Z,88.18
2019-05-28T04:44:20.233Z,88.04
2019-05-28T04:46:51.492Z,86.34
2019-05-28T04:49:22.797Z,85.96
2019-05-28T04:51:54.047Z,86.67
2019-05-28T04:54:25.327Z,85.83
2019-05-28T04:56:56.539Z,85.65
2019-05-28T04:59:27.710Z,83.76
2019-05-28T05:01:58.987Z,84.42
2019-05-28T05:04:30.300Z,83.46
2019-05-28T05:07:01.503Z,83.23
2019-05-28T05:09:32.721Z,83.17
2019-05-28T05:12:06.830Z,81.50
2019-05-28T05:15:03.125Z,81.94
2019-05-28T05:17:35.251Z,82.48
2019-05-28T05:20:07.386Z,80.77
2019-05-28T05:22:38.671Z,80.67
2019-05-28T05:25:10.277Z,80.59
2019-05-28T05:27:41.428Z,80.93
2019-05-28T05:30:12.890Z,81.26
2019-05-28T05:32:44.155Z,81.88
2019-05-28T05:35:15.614Z,81.23
2019-05-28T05:37:46.862Z,81.39
2019-05-28T05:40:18.782Z,80.23
2019-05-28T05:43:14.295Z,79.23
2019-05-28T05:45:45.592Z,78.57
2019-05-28T05:48:18.298Z,79.07
2019-05-28T05:50:49.627Z,75.77
2019-05-28T05:53:20.931Z,75.71
2019-05-28T05:55:55.114Z,74.05
2019-05-28T05:58:26.387Z,74.43
2019-05-28T06:00:57.618Z,75.51
2019-05-28T06:03:39.764Z,72.71
2019-05-28T06:06:01.755Z,73.50
2019-05-28T06:08:32.991Z,72.29
2019-05-28T06:11:04.253Z,73.99
2019-05-28T06:13:35.594Z,72.34
2019-05-28T06:16:07.019Z,72.00
2019-05-28T06:18:38.501Z,71.90
2019-05-28T06:21:16.330Z,71.96
2019-05-28T06:23:43.845Z,74.45
2019-05-28T06:26:15.090Z,73.79
2019-05-28T06:28:46.502Z,73.57
2019-05-28T06:31:17.716Z,74.44
2019-05-28T06:33:56.644Z,75.76
2019-05-28T06:36:22.127Z,75.53
2019-05-28T06:38:53.410Z,74.43
2019-05-28T06:41:24.653Z,73.50
2019-05-28T06:43:56.072Z,72.25
2019-05-28T06:46:27.427Z,73.43
2019-05-28T06:48:58.793Z,75.39
2019-05-28T06:51:30.033Z,78.67
2019-05-28T06:54:01.356Z,78.77
2019-05-28T06:56:32.759Z,78.90
2019-05-28T06:59:04.260Z,80.06
2019-05-28T07:01:35.633Z,80.15
2019-05-28T07:04:13.751Z,79.87
2019-05-28T07:06:40.359Z,79.61
2019-05-28T07:09:11.800Z,79.76
2019-05-28T07:11:43.133Z,80.25
2019-05-28T07:14:14.451Z,82.22
2019-05-28T07:16:53.270Z,83.14
2019-05-28T07:19:24.684Z,84.17
2019-05-28T07:21:53.017Z,83.94
2019-05-28T07:24:24.430Z,81.05
2019-05-28T07:26:55.923Z,78.79
2019-05-28T07:29:27.215Z,77.05
2019-05-28T07:31:58.465Z,77.77
2019-05-28T07:34:31.483Z,73.27
2019-05-28T07:37:02.606Z,73.64
2019-05-28T07:39:33.895Z,73.18
2019-05-28T07:42:05.159Z,72.59
2019-05-28T07:44:36.402Z,71.09
2019-05-28T07:47:10.952Z,68.78
2019-05-28T07:49:41.027Z,68.17
2019-05-28T07:52:12.277Z,71.53
2019-05-28T07:54:43.501Z,71.62
2019-05-28T07:57:14.839Z,72.86
2019-05-28T07:59:46.129Z,74.16
2019-05-28T08:02:17.416Z,74.92
2019-05-28T08:04:50.425Z,77.95
2019-05-28T08:07:21.678Z,79.98
2019-05-28T08:09:56.081Z,80.25
2019-05-28T08:12:27.689Z,81.84
2019-05-28T08:14:59.000Z,82.79
2019-05-28T08:17:30.354Z,83.59
2019-05-28T08:20:01.617Z,82.12
2019-05-28T08:22:42.310Z,81.88
2019-05-28T08:25:23.486Z,81.74
2019-05-28T08:27:39.264Z,79.03
2019-05-28T08:30:11.009Z,78.95
2019-05-28T08:32:42.361Z,77.40
2019-05-28T08:35:13.527Z,75.49
2019-05-28T08:37:44.788Z,72.64
2019-05-28T08:40:16.428Z,71.10
2019-05-28T08:42:47.799Z,71.60
2019-05-28T08:45:19.305Z,71.35
2019-05-28T08:47:52.019Z,71.86
2019-05-28T08:50:33.859Z,70.01
2019-05-28T08:52:58.717Z,69.77
2019-05-28T08:55:30.265Z,66.74
2019-05-28T08:58:02.212Z,67.46
2019-05-28T09:00:43.688Z,65.19
2019-05-28T09:03:15.469Z,66.66
2019-05-28T09:05:46.876Z,67.16
2019-05-28T09:08:18.234Z,67.85
2019-05-28T09:10:49.501Z,68.73
2019-05-28T09:13:20.824Z,69.04
2019-05-28T09:15:52.104Z,70.40
2019-05-28T09:18:23.340Z,68.18
2019-05-28T09:20:56.280Z,69.17
2019-05-28T09:23:27.592Z,69.39
2019-05-28T09:26:01.997Z,67.71
2019-05-28T09:28:33.339Z,67.06
2019-05-28T09:31:04.622Z,67.36
2019-05-28T09:33:35.857Z,66.26
2019-05-28T09:36:09.174Z,66.64
2019-05-28T09:38:39.936Z,64.29
2019-05-28T09:41:11.184Z,64.13
2019-05-28T09:43:42.454Z,64.29
2019-05-28T09:46:13.608Z,66.84
2019-05-28T09:48:44.930Z,71.84
2019-05-28T09:51:16.162Z,71.56
2019-05-28T09:53:55.909Z,73.78
2019-05-28T09:56:27.169Z,75.70
2019-05-28T09:59:01.004Z,79.21
2019-05-28T10:01:31.696Z,81.09
2019-05-28T10:04:05.224Z,83.00
2019-05-28T10:06:38.564Z,85.12
2019-05-28T10:09:09.950Z,85.63
2019-05-28T10:11:41.268Z,86.54
2019-05-28T10:14:12.628Z,87.89
2019-05-28T10:16:43.899Z,88.31
2019-05-28T10:19:15.190Z,89.96
2019-05-28T10:21:46.411Z,89.25
2019-05-28T10:24:18.648Z,90.51
2019-05-28T10:26:49.928Z,90.40
2019-05-28T10:29:21.383Z,91.48
2019-05-28T10:31:52.843Z,91.54
2019-05-28T10:34:24.256Z,91.97
2019-05-28T10:36:55.827Z,91.90
2019-05-28T10:39:27.265Z,92.11
2019-05-28T10:42:01.033Z,91.95
2019-05-28T10:44:32.355Z,91.27
2019-05-28T10:47:07.011Z,90.86
2019-05-28T10:49:38.618Z,91.72
2019-05-28T10:52:10.177Z,92.67
2019-05-28T10:54:41.423Z,92.96
2019-05-28T10:57:12.980Z,93.24
2019-05-28T10:59:44.354Z,93.45
2019-05-28T11:02:15.716Z,93.22
2019-05-28T11:04:47.213Z,93.06
2019-05-28T11:07:19.102Z,92.70
2019-05-28T11:09:50.830Z,92.26
2019-05-28T11:12:22.650Z,91.01
2019-05-28T11:14:54.019Z,91.36
2019-05-28T11:17:25.452Z,91.41
2019-05-28T11:20:06.295Z,90.53
2019-05-28T11:22:38.114Z,90.24
2019-05-28T11:25:11.465Z,90.17
2019-05-28T11:27:43.029Z,90.71
2019-05-28T11:30:16.710Z,91.09
2019-05-28T11:32:48.514Z,91.17
2019-05-28T11:35:20.596Z,91.08
2019-05-28T11:37:52.344Z,89.25
2019-05-28T11:40:24.350Z,86.83
2019-05-28T11:42:55.807Z,87.44
2019-05-28T11:45:27.456Z,85.79
2019-05-28T11:47:59.180Z,85.64
2019-05-28T11:50:30.594Z,83.19
2019-05-28T11:53:02.106Z,82.51
2019-05-28T11:55:37.170Z,83.18
2019-05-28T11:58:10.203Z,82.95
2019-05-28T12:00:47.333Z,79.69
2019-05-28T12:03:21.470Z,79.72
2019-05-28T12:05:52.588Z,79.77
2019-05-28T12:08:24.590Z,80.82
2019-05-28T12:10:56.279Z,79.70
2019-05-28T12:13:27.725Z,80.51
2019-05-28T12:15:59.149Z,81.10
2019-05-28T12:18:30.628Z,79.18
2019-05-28T12:21:02.259Z,78.85
2019-05-28T12:23:37.800Z,79.08
2019-05-28T12:26:09.371Z,80.07
2019-05-28T12:28:40.930Z,78.92
2019-05-28T12:31:19.454Z,78.99
2019-05-28T12:34:03.009Z,80.19
2019-05-28T12:36:36.680Z,80.30
2019-05-28T12:39:11.303Z,81.00
2019-05-28T12:41:42.727Z,80.59
2019-05-28T12:44:42.219Z,80.75
2019-05-28T12:47:14.887Z,84.66
2019-05-28T12:49:50.642Z,87.29
2019-05-28T12:52:24.823Z,86.87
2019-05-28T12:55:04.626Z,88.29
2019-05-28T12:57:37.715Z,88.13
2019-05-28T13:00:10.878Z,84.10
2019-05-28T13:02:42.742Z,82.73
2019-05-28T13:05:16.222Z,83.70
2019-05-28T13:08:06.423Z,82.72
2019-05-28T13:10:21.522Z,83.45
2019-05-28T13:12:52.930Z,82.06
2019-05-28T13:15:25.222Z,81.03
2019-05-28T13:17:56.578Z,81.01
2019-05-28T13:20:27.941Z,82.81
2019-05-28T13:22:59.434Z,82.24
2019-05-28T13:25:31.029Z,82.91
2019-05-28T13:28:02.380Z,79.28
2019-05-28T13:30:33.654Z,78.44
2019-05-28T13:33:05.096Z,78.70
2019-05-28T13:35:36.440Z,81.07
2019-05-28T13:38:25.873Z,80.92
2019-05-28T13:40:40.657Z,79.69
2019-05-28T13:43:13.524Z,76.16
2019-05-28T13:45:44.746Z,76.05
2019-05-28T13:48:16.080Z,75.40
2019-05-28T13:50:47.394Z,74.80
2019-05-28T13:53:18.775Z,73.29
2019-05-28T13:55:50.117Z,69.54
2019-05-28T13:58:21.441Z,72.56
2019-05-28T14:00:52.786Z,73.00
2019-05-28T14:03:23.977Z,73.26
2019-05-28T14:05:55.240Z,74.59
2019-05-28T14:08:42.383Z,75.29
2019-05-28T14:10:59.421Z,76.64
2019-05-28T14:13:30.690Z,76.12
2019-05-28T14:16:04.139Z,73.64
2019-05-28T14:18:35.182Z,73.35
2019-05-28T14:21:18.676Z,73.51
2019-05-28T14:23:53.045Z,75.04
2019-05-28T14:26:24.426Z,73.44
2019-05-28T14:28:55.823Z,74.59
2019-05-28T14:31:27.334Z,74.35
2019-05-28T14:33:58.641Z,75.84
2019-05-28T14:36:29.901Z,77.53
2019-05-28T14:39:03.511Z,78.86
2019-05-28T14:41:39.927Z,78.78
2019-05-28T14:44:11.218Z,80.15
2019-05-28T14:46:42.582Z,81.06
2019-05-28T14:49:17.843Z,81.88
2019-05-28T14:51:50.067Z,80.80
2019-05-28T14:54:22.741Z,80.67
2019-05-28T14:57:00.922Z,79.48
2019-05-28T14:59:33.188Z,78.71
2019-05-28T15:02:04.779Z,77.36
2019-05-28T15:04:36.293Z,80.37
2019-05-28T15:07:07.803Z,77.03
2019-05-28T15:09:39.538Z,79.97
2019-05-28T15:12:10.932Z,77.59
2019-05-28T15:14:42.718Z,77.26
2019-05-28T15:17:14.403Z,75.86
2019-05-28T15:19:45.725Z,77.14
2019-05-28T15:22:17.097Z,77.34
2019-05-28T15:24:49.904Z,78.77
2019-05-28T15:27:21.439Z,78.14
2019-05-28T15:29:53.058Z,77.11
2019-05-28T15:32:24.350Z,73.95
2019-05-28T15:34:55.834Z,75.65
2019-05-28T15:37:27.121Z,73.80
2019-05-28T15:40:04.946Z,75.10
2019-05-28T15:42:36.585Z,70.32
2019-05-28T15:45:16.797Z,71.65
2019-05-28T15:47:48.312Z,71.63
2019-05-28T15:50:21.901Z,73.29
2019-05-28T15:52:53.340Z,73.09
2019-05-28T15:55:24.552Z,74.21
2019-05-28T15:57:55.848Z,74.37
2019-05-28T16:00:27.385Z,74.69
2019-05-28T16:02:58.757Z,74.78
2019-05-28T16:05:30.234Z,71.82
2019-05-28T16:08:02.094Z,75.31
2019-05-28T16:10:33.357Z,76.20
2019-05-28T16:13:04.790Z,76.37
2019-05-28T16:15:38.117Z,73.67
2019-05-28T16:18:09.712Z,74.13
2019-05-28T16:20:40.998Z,75.14
2019-05-28T16:23:12.296Z,75.63
2019-05-28T16:25:43.682Z,77.02
2019-05-28T16:28:14.894Z,77.87
2019-05-28T16:30:46.181Z,76.92
2019-05-28T16:33:17.477Z,75.96
2019-05-28T16:35:48.755Z,76.86
2019-05-28T16:38:20.072Z,76.46
2019-05-28T16:40:51.328Z,74.29
2019-05-28T16:43:22.581Z,74.08
2019-05-28T16:45:54.225Z,75.46
2019-05-28T16:48:25.862Z,75.54
2019-05-28T16:50:57.471Z,76.13
2019-05-28T16:53:28.873Z,77.12
2019-05-28T16:56:00.420Z,76.63
2019-05-28T16:58:31.908Z,76.46
2019-05-28T17:01:21.178Z,76.86
2019-05-28T17:03:36.618Z,75.03
2019-05-28T17:06:08.163Z,75.29
2019-05-28T17:08:39.840Z,75.31
2019-05-28T17:11:11.513Z,73.67
2019-05-28T17:13:48.158Z,74.99
2019-05-28T17:16:16.811Z,73.41
2019-05-28T17:18:48.202Z,74.04
2019-05-28T17:21:23.227Z,73.14
2019-05-28T17:23:54.922Z,73.61
2019-05-28T17:26:28.016Z,73.92
2019-05-28T17:28:59.533Z,74.81
2019-05-28T17:31:30.976Z,72.86
2019-05-28T17:34:03.011Z,73.14
2019-05-28T17:36:34.635Z,73.19
2019-05-28T17:39:08.464Z,73.13
2019-05-28T17:41:40.182Z,73.14
2019-05-28T17:44:11.717Z,73.51
2019-05-28T17:46:43.541Z,71.77
2019-05-28T17:52:29.678Z,71.41
2019-05-28T17:55:04.351Z,72.49
2019-05-28T17:57:41.322Z,73.01
2019-05-28T18:00:14.872Z,70.53
2019-05-28T18:02:51.998Z,71.46
2019-05-28T18:05:23.538Z,71.45
2019-05-28T18:07:54.996Z,70.88
2019-05-28T18:10:26.664Z,71.26
2019-05-28T18:13:04.376Z,73.23
2019-05-28T18:15:44.433Z,72.53
2019-05-28T18:18:17.662Z,73.96
2019-05-28T18:20:49.708Z,71.99
2019-05-28T18:23:23.907Z,72.84
2019-05-28T18:25:58.229Z,71.65
2019-05-28T18:28:47.657Z,71.84
2019-05-28T18:32:29.144Z,74.21
2019-05-28T18:35:34.703Z,74.96
2019-05-28T18:38:14.273Z,75.16
2019-05-28T18:41:25.544Z,75.56
2019-05-28T18:44:14.345Z,76.92
2019-05-28T18:46:45.795Z,75.63
2019-05-28T18:49:17.221Z,75.31
2019-05-28T18:51:48.769Z,76.06
2019-05-28T18:54:20.477Z,77.00
2019-05-28T19:00:48.377Z,75.21
2019-05-28T19:08:03.748Z,75.56
2019-05-28T19:11:00.396Z,75.10
2019-05-28T19:18:43.162Z,77.53
2019-05-28T19:23:01.965Z,77.57
2019-05-28T19:26:26.163Z,77.31
2019-05-28T19:43:08.536Z,77.91
2019-05-28T19:51:18.638Z,77.17
2019-05-28T20:10:41.149Z,76.67
2019-05-28T20:13:12.635Z,74.76
2019-05-28T20:15:43.943Z,75.71
2019-05-28T20:19:10.051Z,75.13
2019-05-28T20:22:02.677Z,74.52
2019-05-28T20:25:05.380Z,73.49
2019-05-28T20:28:14.898Z,73.12
2019-05-28T20:31:06.274Z,73.17
2019-05-28T20:34:08.069Z,71.28
2019-05-28T20:40:45.250Z,71.95
2019-05-28T20:43:26.835Z,71.07
2019-05-28T20:46:00.447Z,70.92
2019-05-28T20:48:32.055Z,70.41
2019-05-28T20:51:08.906Z,70.69
2019-05-28T20:53:40.639Z,69.56
2019-05-28T20:56:17.042Z,68.08
2019-05-28T20:58:53.836Z,67.82
2019-05-28T21:01:35.099Z,67.85
2019-05-28T21:04:08.254Z,68.18
2019-05-28T21:06:39.637Z,67.49
2019-05-28T21:09:12.973Z,69.46
2019-05-28T21:11:43.824Z,68.21
2019-05-28T21:14:15.167Z,69.39
2019-05-28T21:16:46.624Z,67.72
2019-05-28T21:19:18.004Z,70.23
2019-05-28T21:21:49.549Z,69.11
2019-05-28T21:24:20.999Z,69.38
2019-05-28T21:26:52.408Z,68.63
2019-05-28T21:29:26.299Z,68.26
2019-05-28T21:31:58.768Z,68.16
2019-05-28T21:34:30.634Z,68.57
2019-05-28T21:38:08.239Z,68.75
2019-05-28T21:40:41.461Z,68.49
2019-05-28T21:44:26.799Z,68.61
2019-05-28T21:51:08.137Z,68.46
2019-05-28T21:54:51.495Z,70.39
2019-05-28T21:59:36.158Z,71.07
2019-05-28T22:02:06.912Z,71.47
2019-05-28T22:11:45.950Z,71.46
2019-05-28T22:14:35.123Z,71.69
2019-05-28T22:17:18.301Z,71.07
2019-05-28T22:24:09.553Z,70.33
2019-05-28T22:26:42.402Z,69.07
2019-05-28T22:29:24.587Z,68.27
2019-05-28T22:32:14.770Z,68.09
2019-05-28T22:34:51.605Z,68.58
2019-05-28T22:37:26.341Z,66.72
2019-05-28T22:40:12.790Z,67.01
2019-05-28T22:42:45.538Z,70.03
2019-05-28T22:45:46.923Z,68.56
2019-05-28T22:48:20.941Z,69.68
2019-05-28T22:50:59.966Z,71.65
2019-05-28T22:57:56.164Z,71.08
2019-05-28T23:01:11.537Z,68.43
2019-05-28T23:03:58.840Z,67.82
2019-05-28T23:06:38.552Z,69.42
2019-05-28T23:09:18.940Z,72.15
2019-05-28T23:12:25.316Z,70.74
2019-05-28T23:15:32.613Z,71.68
2019-05-28T23:18:21.424Z,71.80
2019-05-28T23:20:52.511Z,71.35
2019-05-28T23:23:25.871Z,72.54
2019-05-28T23:25:57.036Z,73.46
2019-05-28T23:28:28.229Z,71.64
2019-05-28T23:30:59.514Z,71.71
2019-05-28T23:33:30.670Z,72.87
2019-05-28T23:36:02.483Z,74.97
2019-05-28T23:38:33.832Z,74.38
2019-05-28T23:41:27.898Z,72.72
2019-05-28T23:44:02.267Z,73.75
2019-05-28T23:46:32.557Z,75.50
2019-05-28T23:49:04.090Z,76.62
2019-05-28T23:51:35.517Z,77.56
2019-05-28T23:54:07.674Z,78.75
2019-05-28T23:56:38.995Z,79.19
2019-05-28T23:59:10.279Z,80.02
